XS43 weather

Medina River Ranch Airport
Pipe Creek, Texas, United States

Public forecast

Using degrees Fahrenheit for public forecast. Weather courtesy of forecast.io.

Closest aviation weather report (METAR) to Medina River Ranch Airport

Closest report is Boerne Stage Field, 14.2 nm (26.2 km) ENE. Retrieved 2020/08/06 19:35 UTC (7 minutes ago):

K5C1 061935Z AUTO 15007G15KT 10SM CLR 32/17 A3003 RMK AO1

Closest aviation forecast (TAF) to Medina River Ranch Airport

Closest forecast is Lackland Air Force Base, 25.7 nm (47.6 km) SE. Retrieved 2020/08/06 18:06 UTC (2 hours ago):

TAF TAF KSKF 061800Z 0618/0724 14012KT 9999 SCT040 QNH2987INS TEMPO 0623/0705 13014G20KT BECMG 0708/0709 15007KT 9999 BKN012 QNH2999INS TEMPO 0710/0714 BKN008 BKN012 BECMG 0714/0715 16009KT 9999 SCT020 QNH3003INS TX37/0622Z TN25/0711Z